sensor_id;sensor_type;location;lat;lon;timestamp;P1;durP1;ratioP1;P2;durP2;ratioP2
19883;SDS011;10104;50.732;10.174;2024-01-16T00:01:10;4.53;;;2.60;;
19883;SDS011;10104;50.732;10.174;2024-01-16T00:03:50;5.10;;;2.83;;
19883;SDS011;10104;50.732;10.174;2024-01-16T00:06:30;6.43;;;2.63;;
19883;SDS011;10104;50.732;10.174;2024-01-16T00:09:10;5.87;;;3.10;;
19883;SDS011;10104;50.732;10.174;2024-01-16T00:11:51;7.03;;;3.03;;
19883;SDS011;10104;50.732;10.174;2024-01-16T00:14:35;4.97;;;2.67;;
19883;SDS011;10104;50.732;10.174;2024-01-16T00:17:16;4.53;;;2.30;;
19883;SDS011;10104;50.732;10.174;2024-01-16T00:19:57;7.73;;;3.33;;
19883;SDS011;10104;50.732;10.174;2024-01-16T00:22:40;3.40;;;2.50;;
19883;SDS011;10104;50.732;10.174;2024-01-16T00:25:21;4.97;;;2.53;;
19883;SDS011;10104;50.732;10.174;2024-01-16T00:28:01;6.87;;;3.27;;
19883;SDS011;10104;50.732;10.174;2024-01-16T00:30:42;4.20;;;2.60;;
19883;SDS011;10104;50.732;10.174;2024-01-16T00:33:22;4.03;;;2.60;;
19883;SDS011;10104;50.732;10.174;2024-01-16T00:36:02;7.17;;;2.83;;
19883;SDS011;10104;50.732;10.174;2024-01-16T00:38:42;5.47;;;2.80;;
19883;SDS011;10104;50.732;10.174;2024-01-16T00:41:23;8.77;;;2.80;;
19883;SDS011;10104;50.732;10.174;2024-01-16T00:44:03;3.90;;;2.70;;
19883;SDS011;10104;50.732;10.174;2024-01-16T00:46:43;3.20;;;2.27;;
19883;SDS011;10104;50.732;10.174;2024-01-16T00:49:23;5.37;;;2.43;;
19883;SDS011;10104;50.732;10.174;2024-01-16T00:52:04;3.70;;;2.13;;
19883;SDS011;10104;50.732;10.174;2024-01-16T00:54:44;5.77;;;3.13;;
19883;SDS011;10104;50.732;10.174;2024-01-16T00:57:24;6.73;;;2.63;;
19883;SDS011;10104;50.732;10.174;2024-01-16T01:00:05;5.30;;;2.40;;
19883;SDS011;10104;50.732;10.174;2024-01-16T01:02:45;3.27;;;2.80;;
19883;SDS011;10104;50.732;10.174;2024-01-16T01:05:26;3.63;;;2.20;;
19883;SDS011;10104;50.732;10.174;2024-01-16T01:08:09;5.40;;;2.73;;
19883;SDS011;10104;50.732;10.174;2024-01-16T01:10:49;3.73;;;2.40;;
19883;SDS011;10104;50.732;10.174;2024-01-16T01:13:29;4.57;;;2.50;;
19883;SDS011;10104;50.732;10.174;2024-01-16T01:16:09;6.00;;;2.53;;
19883;SDS011;10104;50.732;10.174;2024-01-16T01:18:49;6.33;;;2.13;;
19883;SDS011;10104;50.732;10.174;2024-01-16T01:21:29;5.17;;;1.93;;
19883;SDS011;10104;50.732;10.174;2024-01-16T01:24:09;5.67;;;2.80;;
19883;SDS011;10104;50.732;10.174;2024-01-16T01:26:50;4.00;;;2.13;;
19883;SDS011;10104;50.732;10.174;2024-01-16T01:29:30;3.23;;;2.17;;
19883;SDS011;10104;50.732;10.174;2024-01-16T01:32:10;4.60;;;2.60;;
19883;SDS011;10104;50.732;10.174;2024-01-16T01:34:50;7.07;;;2.50;;
19883;SDS011;10104;50.732;10.174;2024-01-16T01:37:30;6.60;;;2.63;;
19883;SDS011;10104;50.732;10.174;2024-01-16T01:40:11;4.17;;;2.27;;
19883;SDS011;10104;50.732;10.174;2024-01-16T01:42:52;4.73;;;1.97;;
19883;SDS011;10104;50.732;10.174;2024-01-16T01:45:32;3.90;;;2.07;;
19883;SDS011;10104;50.732;10.174;2024-01-16T01:48:12;5.03;;;2.90;;
19883;SDS011;10104;50.732;10.174;2024-01-16T01:50:53;3.73;;;2.80;;
19883;SDS011;10104;50.732;10.174;2024-01-16T01:53:33;3.03;;;2.00;;
19883;SDS011;10104;50.732;10.174;2024-01-16T01:56:17;8.80;;;3.17;;
19883;SDS011;10104;50.732;10.174;2024-01-16T01:58:58;4.93;;;2.50;;
19883;SDS011;10104;50.732;10.174;2024-01-16T02:01:39;4.50;;;2.30;;
19883;SDS011;10104;50.732;10.174;2024-01-16T02:04:21;2.37;;;2.17;;
19883;SDS011;10104;50.732;10.174;2024-01-16T02:07:02;3.90;;;2.03;;
19883;SDS011;10104;50.732;10.174;2024-01-16T02:09:43;4.33;;;3.00;;
19883;SDS011;10104;50.732;10.174;2024-01-16T02:12:24;5.13;;;2.53;;
19883;SDS011;10104;50.732;10.174;2024-01-16T02:15:04;3.47;;;2.13;;
19883;SDS011;10104;50.732;10.174;2024-01-16T02:17:47;4.37;;;2.17;;
19883;SDS011;10104;50.732;10.174;2024-01-16T02:20:28;4.57;;;2.30;;
19883;SDS011;10104;50.732;10.174;2024-01-16T02:23:08;4.77;;;2.63;;
19883;SDS011;10104;50.732;10.174;2024-01-16T02:25:49;3.87;;;1.90;;
19883;SDS011;10104;50.732;10.174;2024-01-16T02:28:30;6.83;;;2.63;;
19883;SDS011;10104;50.732;10.174;2024-01-16T02:31:10;4.27;;;2.70;;
19883;SDS011;10104;50.732;10.174;2024-01-16T02:33:51;4.90;;;2.60;;
19883;SDS011;10104;50.732;10.174;2024-01-16T02:36:31;6.67;;;2.40;;
19883;SDS011;10104;50.732;10.174;2024-01-16T02:39:12;4.77;;;2.63;;
19883;SDS011;10104;50.732;10.174;2024-01-16T02:41:52;6.83;;;2.53;;
19883;SDS011;10104;50.732;10.174;2024-01-16T02:44:32;4.17;;;2.27;;
19883;SDS011;10104;50.732;10.174;2024-01-16T02:47:13;5.83;;;2.67;;
19883;SDS011;10104;50.732;10.174;2024-01-16T02:49:53;4.13;;;2.43;;
19883;SDS011;10104;50.732;10.174;2024-01-16T02:52:33;3.80;;;2.37;;
19883;SDS011;10104;50.732;10.174;2024-01-16T02:55:13;4.50;;;2.23;;
19883;SDS011;10104;50.732;10.174;2024-01-16T02:57:53;3.30;;;2.10;;
19883;SDS011;10104;50.732;10.174;2024-01-16T03:00:33;4.80;;;2.40;;
19883;SDS011;10104;50.732;10.174;2024-01-16T03:03:14;3.27;;;2.33;;
19883;SDS011;10104;50.732;10.174;2024-01-16T03:05:54;8.80;;;2.60;;
19883;SDS011;10104;50.732;10.174;2024-01-16T03:08:36;7.23;;;2.90;;
19883;SDS011;10104;50.732;10.174;2024-01-16T03:11:16;3.53;;;2.23;;
19883;SDS011;10104;50.732;10.174;2024-01-16T03:13:57;4.03;;;2.37;;
19883;SDS011;10104;50.732;10.174;2024-01-16T03:16:37;10.37;;;2.67;;
19883;SDS011;10104;50.732;10.174;2024-01-16T03:19:17;4.03;;;2.43;;
19883;SDS011;10104;50.732;10.174;2024-01-16T03:21:57;7.60;;;2.30;;
19883;SDS011;10104;50.732;10.174;2024-01-16T03:24:38;7.67;;;2.17;;
19883;SDS011;10104;50.732;10.174;2024-01-16T03:27:18;4.40;;;2.10;;
19883;SDS011;10104;50.732;10.174;2024-01-16T03:29:58;4.90;;;2.50;;
19883;SDS011;10104;50.732;10.174;2024-01-16T03:32:40;4.37;;;2.70;;
19883;SDS011;10104;50.732;10.174;2024-01-16T03:35:20;2.47;;;2.23;;
19883;SDS011;10104;50.732;10.174;2024-01-16T03:38:00;7.20;;;3.03;;
19883;SDS011;10104;50.732;10.174;2024-01-16T03:40:41;4.50;;;2.87;;
19883;SDS011;10104;50.732;10.174;2024-01-16T03:43:21;6.80;;;3.03;;
19883;SDS011;10104;50.732;10.174;2024-01-16T03:46:01;6.07;;;3.10;;
19883;SDS011;10104;50.732;10.174;2024-01-16T03:48:42;7.10;;;3.03;;
19883;SDS011;10104;50.732;10.174;2024-01-16T03:51:22;3.33;;;2.40;;
19883;SDS011;10104;50.732;10.174;2024-01-16T03:54:02;9.30;;;3.13;;
19883;SDS011;10104;50.732;10.174;2024-01-16T03:56:42;6.17;;;2.60;;
19883;SDS011;10104;50.732;10.174;2024-01-16T03:59:22;4.00;;;2.30;;
19883;SDS011;10104;50.732;10.174;2024-01-16T04:02:03;4.27;;;1.87;;
19883;SDS011;10104;50.732;10.174;2024-01-16T04:04:43;4.00;;;2.20;;
19883;SDS011;10104;50.732;10.174;2024-01-16T04:07:23;3.27;;;2.53;;
19883;SDS011;10104;50.732;10.174;2024-01-16T04:10:06;4.67;;;2.23;;
19883;SDS011;10104;50.732;10.174;2024-01-16T04:12:47;4.93;;;2.80;;
19883;SDS011;10104;50.732;10.174;2024-01-16T04:15:27;3.83;;;2.43;;
19883;SDS011;10104;50.732;10.174;2024-01-16T04:18:08;3.87;;;2.40;;
19883;SDS011;10104;50.732;10.174;2024-01-16T04:20:49;2.47;;;2.00;;
19883;SDS011;10104;50.732;10.174;2024-01-16T04:23:31;4.37;;;2.70;;
19883;SDS011;10104;50.732;10.174;2024-01-16T04:26:11;6.83;;;2.57;;
19883;SDS011;10104;50.732;10.174;2024-01-16T04:28:51;3.77;;;2.40;;
19883;SDS011;10104;50.732;10.174;2024-01-16T04:31:33;4.33;;;2.67;;
19883;SDS011;10104;50.732;10.174;2024-01-16T04:34:19;6.97;;;3.07;;
19883;SDS011;10104;50.732;10.174;2024-01-16T04:36:59;3.97;;;2.47;;
19883;SDS011;10104;50.732;10.174;2024-01-16T04:39:39;4.93;;;2.83;;
19883;SDS011;10104;50.732;10.174;2024-01-16T04:42:19;4.20;;;2.83;;
19883;SDS011;10104;50.732;10.174;2024-01-16T04:44:59;7.47;;;2.97;;
19883;SDS011;10104;50.732;10.174;2024-01-16T04:47:39;4.97;;;3.23;;
19883;SDS011;10104;50.732;10.174;2024-01-16T04:50:19;8.90;;;3.40;;
19883;SDS011;10104;50.732;10.174;2024-01-16T04:53:00;4.73;;;3.30;;
19883;SDS011;10104;50.732;10.174;2024-01-16T04:55:41;7.17;;;3.40;;
19883;SDS011;10104;50.732;10.174;2024-01-16T04:58:21;7.47;;;3.50;;
19883;SDS011;10104;50.732;10.174;2024-01-16T05:01:02;9.23;;;3.30;;
19883;SDS011;10104;50.732;10.174;2024-01-16T05:03:42;4.57;;;2.70;;
19883;SDS011;10104;50.732;10.174;2024-01-16T05:06:23;4.23;;;2.87;;
19883;SDS011;10104;50.732;10.174;2024-01-16T05:09:03;9.10;;;3.57;;
19883;SDS011;10104;50.732;10.174;2024-01-16T05:11:43;6.53;;;2.90;;
19883;SDS011;10104;50.732;10.174;2024-01-16T05:14:23;2.83;;;2.13;;
19883;SDS011;10104;50.732;10.174;2024-01-16T05:17:05;7.50;;;3.00;;
19883;SDS011;10104;50.732;10.174;2024-01-16T05:19:46;9.00;;;2.57;;
19883;SDS011;10104;50.732;10.174;2024-01-16T05:22:26;5.97;;;3.10;;
19883;SDS011;10104;50.732;10.174;2024-01-16T05:25:06;6.47;;;2.73;;
19883;SDS011;10104;50.732;10.174;2024-01-16T05:27:47;9.37;;;3.30;;
19883;SDS011;10104;50.732;10.174;2024-01-16T05:30:27;10.10;;;3.67;;
19883;SDS011;10104;50.732;10.174;2024-01-16T05:33:08;5.70;;;3.30;;
19883;SDS011;10104;50.732;10.174;2024-01-16T05:35:48;8.07;;;3.33;;
19883;SDS011;10104;50.732;10.174;2024-01-16T05:38:29;8.03;;;3.70;;
19883;SDS011;10104;50.732;10.174;2024-01-16T05:41:09;6.00;;;3.00;;
19883;SDS011;10104;50.732;10.174;2024-01-16T05:43:49;4.40;;;3.10;;
19883;SDS011;10104;50.732;10.174;2024-01-16T05:46:30;5.10;;;2.83;;
19883;SDS011;10104;50.732;10.174;2024-01-16T05:49:11;8.77;;;3.67;;
19883;SDS011;10104;50.732;10.174;2024-01-16T05:51:52;7.33;;;3.33;;
19883;SDS011;10104;50.732;10.174;2024-01-16T05:54:32;7.13;;;3.37;;
19883;SDS011;10104;50.732;10.174;2024-01-16T05:57:12;6.13;;;2.97;;
19883;SDS011;10104;50.732;10.174;2024-01-16T05:59:52;4.93;;;3.00;;
19883;SDS011;10104;50.732;10.174;2024-01-16T06:02:34;10.40;;;3.10;;
19883;SDS011;10104;50.732;10.174;2024-01-16T06:05:14;8.57;;;3.60;;
19883;SDS011;10104;50.732;10.174;2024-01-16T06:07:54;6.43;;;3.50;;
19883;SDS011;10104;50.732;10.174;2024-01-16T06:10:35;4.70;;;3.07;;
19883;SDS011;10104;50.732;10.174;2024-01-16T06:13:15;8.47;;;3.57;;
19883;SDS011;10104;50.732;10.174;2024-01-16T06:15:56;7.00;;;3.40;;
19883;SDS011;10104;50.732;10.174;2024-01-16T06:18:36;7.17;;;3.23;;
19883;SDS011;10104;50.732;10.174;2024-01-16T06:21:16;7.17;;;3.37;;
19883;SDS011;10104;50.732;10.174;2024-01-16T06:24:00;7.47;;;3.27;;
19883;SDS011;10104;50.732;10.174;2024-01-16T06:26:40;5.93;;;3.20;;
19883;SDS011;10104;50.732;10.174;2024-01-16T06:29:22;6.10;;;2.67;;
19883;SDS011;10104;50.732;10.174;2024-01-16T06:32:14;5.63;;;3.33;;
19883;SDS011;10104;50.732;10.174;2024-01-16T06:34:54;8.47;;;3.47;;
19883;SDS011;10104;50.732;10.174;2024-01-16T06:37:34;5.60;;;2.90;;
19883;SDS011;10104;50.732;10.174;2024-01-16T06:40:14;4.83;;;2.83;;
19883;SDS011;10104;50.732;10.174;2024-01-16T06:42:54;6.27;;;2.53;;
19883;SDS011;10104;50.732;10.174;2024-01-16T06:45:34;6.87;;;2.83;;
19883;SDS011;10104;50.732;10.174;2024-01-16T06:48:14;5.03;;;2.57;;
19883;SDS011;10104;50.732;10.174;2024-01-16T06:50:56;5.13;;;2.57;;
19883;SDS011;10104;50.732;10.174;2024-01-16T06:53:36;6.13;;;2.90;;
19883;SDS011;10104;50.732;10.174;2024-01-16T06:56:17;7.50;;;3.50;;
19883;SDS011;10104;50.732;10.174;2024-01-16T06:58:57;6.27;;;3.10;;
19883;SDS011;10104;50.732;10.174;2024-01-16T07:01:38;6.83;;;2.63;;
19883;SDS011;10104;50.732;10.174;2024-01-16T07:04:18;9.37;;;3.40;;
19883;SDS011;10104;50.732;10.174;2024-01-16T07:06:58;9.27;;;3.67;;
19883;SDS011;10104;50.732;10.174;2024-01-16T07:09:41;5.13;;;3.30;;
19883;SDS011;10104;50.732;10.174;2024-01-16T07:12:21;8.17;;;3.70;;
19883;SDS011;10104;50.732;10.174;2024-01-16T07:15:02;8.30;;;4.03;;
19883;SDS011;10104;50.732;10.174;2024-01-16T07:17:43;4.50;;;3.37;;
19883;SDS011;10104;50.732;10.174;2024-01-16T07:20:23;7.30;;;3.60;;
19883;SDS011;10104;50.732;10.174;2024-01-16T07:23:04;6.37;;;3.67;;
19883;SDS011;10104;50.732;10.174;2024-01-16T07:25:44;6.47;;;3.67;;
19883;SDS011;10104;50.732;10.174;2024-01-16T07:28:24;9.03;;;3.37;;
19883;SDS011;10104;50.732;10.174;2024-01-16T07:31:04;5.63;;;3.90;;
19883;SDS011;10104;50.732;10.174;2024-01-16T07:33:45;8.00;;;4.10;;
19883;SDS011;10104;50.732;10.174;2024-01-16T07:36:26;6.60;;;3.43;;
19883;SDS011;10104;50.732;10.174;2024-01-16T07:39:06;6.30;;;3.63;;
19883;SDS011;10104;50.732;10.174;2024-01-16T07:41:46;10.73;;;4.17;;
19883;SDS011;10104;50.732;10.174;2024-01-16T07:44:26;7.23;;;4.17;;
19883;SDS011;10104;50.732;10.174;2024-01-16T07:47:06;7.73;;;4.57;;
19883;SDS011;10104;50.732;10.174;2024-01-16T07:49:46;8.87;;;4.67;;
19883;SDS011;10104;50.732;10.174;2024-01-16T07:52:27;10.20;;;4.03;;
19883;SDS011;10104;50.732;10.174;2024-01-16T07:55:08;6.20;;;4.37;;
19883;SDS011;10104;50.732;10.174;2024-01-16T07:57:48;6.70;;;4.27;;
19883;SDS011;10104;50.732;10.174;2024-01-16T08:00:28;12.63;;;4.00;;
19883;SDS011;10104;50.732;10.174;2024-01-16T08:03:09;9.67;;;4.17;;
19883;SDS011;10104;50.732;10.174;2024-01-16T08:05:52;10.60;;;4.30;;
19883;SDS011;10104;50.732;10.174;2024-01-16T08:08:32;6.77;;;4.07;;
19883;SDS011;10104;50.732;10.174;2024-01-16T08:11:14;6.37;;;4.03;;
19883;SDS011;10104;50.732;10.174;2024-01-16T08:13:55;10.63;;;5.30;;
19883;SDS011;10104;50.732;10.174;2024-01-16T08:16:36;9.07;;;4.80;;
19883;SDS011;10104;50.732;10.174;2024-01-16T08:19:16;7.87;;;4.07;;
19883;SDS011;10104;50.732;10.174;2024-01-16T08:21:57;6.87;;;4.07;;
19883;SDS011;10104;50.732;10.174;2024-01-16T08:24:37;6.43;;;4.07;;
19883;SDS011;10104;50.732;10.174;2024-01-16T08:27:18;6.97;;;4.27;;
19883;SDS011;10104;50.732;10.174;2024-01-16T08:29:59;8.10;;;3.87;;
19883;SDS011;10104;50.732;10.174;2024-01-16T08:32:39;8.60;;;4.50;;
19883;SDS011;10104;50.732;10.174;2024-01-16T08:35:20;7.73;;;4.07;;
19883;SDS011;10104;50.732;10.174;2024-01-16T08:38:00;9.43;;;4.20;;
19883;SDS011;10104;50.732;10.174;2024-01-16T08:40:40;8.67;;;4.30;;
19883;SDS011;10104;50.732;10.174;2024-01-16T08:43:20;5.73;;;4.47;;
19883;SDS011;10104;50.732;10.174;2024-01-16T08:46:01;7.17;;;4.70;;
19883;SDS011;10104;50.732;10.174;2024-01-16T08:48:41;7.17;;;4.30;;
19883;SDS011;10104;50.732;10.174;2024-01-16T08:51:22;9.47;;;4.47;;
19883;SDS011;10104;50.732;10.174;2024-01-16T08:54:02;5.93;;;3.80;;
19883;SDS011;10104;50.732;10.174;2024-01-16T08:56:43;8.03;;;3.70;;
19883;SDS011;10104;50.732;10.174;2024-01-16T08:59:24;7.53;;;4.33;;
19883;SDS011;10104;50.732;10.174;2024-01-16T09:02:04;7.27;;;3.83;;
19883;SDS011;10104;50.732;10.174;2024-01-16T09:04:45;8.17;;;3.80;;
19883;SDS011;10104;50.732;10.174;2024-01-16T09:07:26;10.63;;;4.23;;
19883;SDS011;10104;50.732;10.174;2024-01-16T09:10:06;8.70;;;4.70;;
19883;SDS011;10104;50.732;10.174;2024-01-16T09:12:47;9.30;;;4.43;;
19883;SDS011;10104;50.732;10.174;2024-01-16T09:15:28;7.30;;;4.30;;
19883;SDS011;10104;50.732;10.174;2024-01-16T09:18:08;6.13;;;4.50;;
19883;SDS011;10104;50.732;10.174;2024-01-16T09:20:49;8.53;;;4.27;;
19883;SDS011;10104;50.732;10.174;2024-01-16T09:23:29;9.80;;;4.60;;
19883;SDS011;10104;50.732;10.174;2024-01-16T09:26:09;8.93;;;3.90;;
19883;SDS011;10104;50.732;10.174;2024-01-16T09:28:50;6.53;;;3.83;;
19883;SDS011;10104;50.732;10.174;2024-01-16T09:31:31;10.60;;;4.23;;
19883;SDS011;10104;50.732;10.174;2024-01-16T09:34:11;8.17;;;4.10;;
19883;SDS011;10104;50.732;10.174;2024-01-16T09:36:53;9.57;;;2.57;;
19883;SDS011;10104;50.732;10.174;2024-01-16T09:39:33;8.87;;;3.77;;
19883;SDS011;10104;50.732;10.174;2024-01-16T09:42:15;6.47;;;3.30;;
19883;SDS011;10104;50.732;10.174;2024-01-16T09:44:56;4.90;;;3.00;;
19883;SDS011;10104;50.732;10.174;2024-01-16T09:47:37;7.90;;;3.70;;
19883;SDS011;10104;50.732;10.174;2024-01-16T09:50:19;6.43;;;3.77;;
19883;SDS011;10104;50.732;10.174;2024-01-16T09:53:00;4.10;;;3.13;;
19883;SDS011;10104;50.732;10.174;2024-01-16T09:55:41;9.00;;;3.47;;
19883;SDS011;10104;50.732;10.174;2024-01-16T09:58:21;5.43;;;3.47;;
19883;SDS011;10104;50.732;10.174;2024-01-16T10:01:05;6.37;;;3.60;;
19883;SDS011;10104;50.732;10.174;2024-01-16T10:03:45;8.27;;;3.60;;
19883;SDS011;10104;50.732;10.174;2024-01-16T10:06:27;7.67;;;4.47;;
19883;SDS011;10104;50.732;10.174;2024-01-16T10:09:07;7.97;;;3.80;;
19883;SDS011;10104;50.732;10.174;2024-01-16T10:11:48;6.60;;;3.70;;
19883;SDS011;10104;50.732;10.174;2024-01-16T10:14:30;6.90;;;4.33;;
19883;SDS011;10104;50.732;10.174;2024-01-16T10:17:10;9.93;;;4.53;;
19883;SDS011;10104;50.732;10.174;2024-01-16T10:19:55;7.27;;;4.47;;
19883;SDS011;10104;50.732;10.174;2024-01-16T10:22:38;9.83;;;4.47;;
19883;SDS011;10104;50.732;10.174;2024-01-16T10:25:20;8.80;;;4.47;;
19883;SDS011;10104;50.732;10.174;2024-01-16T10:28:05;7.37;;;4.43;;
19883;SDS011;10104;50.732;10.174;2024-01-16T10:30:48;10.00;;;3.87;;
19883;SDS011;10104;50.732;10.174;2024-01-16T10:33:41;6.57;;;3.23;;
19883;SDS011;10104;50.732;10.174;2024-01-16T10:36:23;6.37;;;3.43;;
19883;SDS011;10104;50.732;10.174;2024-01-16T10:39:05;6.27;;;3.20;;
19883;SDS011;10104;50.732;10.174;2024-01-16T10:41:58;6.37;;;3.40;;
19883;SDS011;10104;50.732;10.174;2024-01-16T10:44:52;5.87;;;3.53;;
19883;SDS011;10104;50.732;10.174;2024-01-16T10:47:34;5.53;;;3.20;;
19883;SDS011;10104;50.732;10.174;2024-01-16T10:50:17;5.37;;;3.43;;
19883;SDS011;10104;50.732;10.174;2024-01-16T10:52:59;5.23;;;3.60;;
19883;SDS011;10104;50.732;10.174;2024-01-16T10:55:49;7.90;;;3.33;;
19883;SDS011;10104;50.732;10.174;2024-01-16T10:58:33;9.47;;;3.70;;
19883;SDS011;10104;50.732;10.174;2024-01-16T11:01:16;7.80;;;3.60;;
19883;SDS011;10104;50.732;10.174;2024-01-16T11:03:57;7.40;;;2.97;;
19883;SDS011;10104;50.732;10.174;2024-01-16T11:06:41;9.10;;;3.70;;
19883;SDS011;10104;50.732;10.174;2024-01-16T11:09:22;5.20;;;4.10;;
19883;SDS011;10104;50.732;10.174;2024-01-16T11:12:04;7.87;;;3.90;;
19883;SDS011;10104;50.732;10.174;2024-01-16T11:14:45;6.30;;;4.27;;
19883;SDS011;10104;50.732;10.174;2024-01-16T11:17:31;6.50;;;4.20;;
19883;SDS011;10104;50.732;10.174;2024-01-16T11:20:11;8.27;;;4.93;;
19883;SDS011;10104;50.732;10.174;2024-01-16T11:23:13;7.17;;;4.80;;
19883;SDS011;10104;50.732;10.174;2024-01-16T11:25:54;7.67;;;4.57;;
19883;SDS011;10104;50.732;10.174;2024-01-16T11:28:34;7.80;;;4.80;;
19883;SDS011;10104;50.732;10.174;2024-01-16T11:31:33;6.13;;;4.13;;
19883;SDS011;10104;50.732;10.174;2024-01-16T11:34:14;8.87;;;4.37;;
19883;SDS011;10104;50.732;10.174;2024-01-16T11:36:55;12.30;;;5.63;;
19883;SDS011;10104;50.732;10.174;2024-01-16T11:39:36;11.07;;;5.47;;
19883;SDS011;10104;50.732;10.174;2024-01-16T11:42:25;9.70;;;5.30;;
19883;SDS011;10104;50.732;10.174;2024-01-16T11:45:07;6.93;;;5.07;;
19883;SDS011;10104;50.732;10.174;2024-01-16T11:47:47;7.27;;;5.17;;
19883;SDS011;10104;50.732;10.174;2024-01-16T11:50:28;10.50;;;5.60;;
19883;SDS011;10104;50.732;10.174;2024-01-16T11:53:30;11.63;;;6.07;;
19883;SDS011;10104;50.732;10.174;2024-01-16T12:05:29;10.17;;;5.40;;
19883;SDS011;10104;50.732;10.174;2024-01-16T12:08:12;12.40;;;5.67;;
19883;SDS011;10104;50.732;10.174;2024-01-16T12:11:00;9.30;;;6.00;;
19883;SDS011;10104;50.732;10.174;2024-01-16T12:13:41;11.87;;;6.47;;
19883;SDS011;10104;50.732;10.174;2024-01-16T12:16:21;7.67;;;5.53;;
19883;SDS011;10104;50.732;10.174;2024-01-16T12:19:07;8.33;;;5.70;;
19883;SDS011;10104;50.732;10.174;2024-01-16T12:21:48;10.40;;;5.77;;
19883;SDS011;10104;50.732;10.174;2024-01-16T12:24:28;6.77;;;4.70;;
19883;SDS011;10104;50.732;10.174;2024-01-16T12:27:09;10.97;;;5.77;;
19883;SDS011;10104;50.732;10.174;2024-01-16T12:29:49;8.87;;;5.00;;
19883;SDS011;10104;50.732;10.174;2024-01-16T12:32:44;7.10;;;4.60;;
19883;SDS011;10104;50.732;10.174;2024-01-16T12:35:30;10.20;;;5.43;;
19883;SDS011;10104;50.732;10.174;2024-01-16T12:38:11;11.17;;;5.67;;
19883;SDS011;10104;50.732;10.174;2024-01-16T12:40:52;9.67;;;5.67;;
19883;SDS011;10104;50.732;10.174;2024-01-16T12:43:33;8.90;;;5.67;;
19883;SDS011;10104;50.732;10.174;2024-01-16T12:46:13;9.63;;;5.07;;
19883;SDS011;10104;50.732;10.174;2024-01-16T12:48:59;10.37;;;5.63;;
19883;SDS011;10104;50.732;10.174;2024-01-16T12:51:45;7.07;;;4.77;;
19883;SDS011;10104;50.732;10.174;2024-01-16T12:54:25;8.23;;;4.90;;
19883;SDS011;10104;50.732;10.174;2024-01-16T12:57:05;7.50;;;4.87;;
19883;SDS011;10104;50.732;10.174;2024-01-16T12:59:46;10.37;;;5.13;;
19883;SDS011;10104;50.732;10.174;2024-01-16T13:02:29;13.87;;;5.57;;
19883;SDS011;10104;50.732;10.174;2024-01-16T13:05:11;7.57;;;5.23;;
19883;SDS011;10104;50.732;10.174;2024-01-16T13:08:00;7.80;;;5.00;;
19883;SDS011;10104;50.732;10.174;2024-01-16T13:10:43;9.97;;;4.77;;
19883;SDS011;10104;50.732;10.174;2024-01-16T13:13:23;8.47;;;4.97;;
19883;SDS011;10104;50.732;10.174;2024-01-16T13:16:04;12.03;;;5.63;;
19883;SDS011;10104;50.732;10.174;2024-01-16T13:18:46;10.70;;;5.00;;
19883;SDS011;10104;50.732;10.174;2024-01-16T13:21:26;9.13;;;5.07;;
19883;SDS011;10104;50.732;10.174;2024-01-16T13:24:06;12.50;;;5.00;;
19883;SDS011;10104;50.732;10.174;2024-01-16T13:26:46;9.97;;;4.53;;
19883;SDS011;10104;50.732;10.174;2024-01-16T13:29:27;9.90;;;5.10;;
19883;SDS011;10104;50.732;10.174;2024-01-16T13:32:08;9.67;;;5.00;;
19883;SDS011;10104;50.732;10.174;2024-01-16T13:34:48;9.47;;;4.87;;
19883;SDS011;10104;50.732;10.174;2024-01-16T13:37:29;7.73;;;4.63;;
19883;SDS011;10104;50.732;10.174;2024-01-16T13:40:09;7.60;;;4.97;;
19883;SDS011;10104;50.732;10.174;2024-01-16T13:42:55;9.07;;;4.90;;
19883;SDS011;10104;50.732;10.174;2024-01-16T13:45:36;8.60;;;4.53;;
19883;SDS011;10104;50.732;10.174;2024-01-16T13:48:16;6.40;;;4.43;;
19883;SDS011;10104;50.732;10.174;2024-01-16T13:50:57;7.40;;;4.40;;
19883;SDS011;10104;50.732;10.174;2024-01-16T13:53:37;13.40;;;5.20;;
19883;SDS011;10104;50.732;10.174;2024-01-16T13:56:18;10.80;;;4.97;;
19883;SDS011;10104;50.732;10.174;2024-01-16T13:59:18;9.93;;;4.77;;
19883;SDS011;10104;50.732;10.174;2024-01-16T14:01:58;8.23;;;4.70;;
19883;SDS011;10104;50.732;10.174;2024-01-16T14:04:38;12.37;;;4.87;;
19883;SDS011;10104;50.732;10.174;2024-01-16T14:07:19;8.03;;;5.13;;
19883;SDS011;10104;50.732;10.174;2024-01-16T14:09:59;12.30;;;7.03;;
19883;SDS011;10104;50.732;10.174;2024-01-16T14:12:44;16.33;;;7.30;;
19883;SDS011;10104;50.732;10.174;2024-01-16T14:15:25;10.07;;;6.33;;
19883;SDS011;10104;50.732;10.174;2024-01-16T14:18:05;10.93;;;5.00;;
19883;SDS011;10104;50.732;10.174;2024-01-16T14:20:46;17.70;;;8.03;;
19883;SDS011;10104;50.732;10.174;2024-01-16T14:23:26;11.97;;;4.70;;
19883;SDS011;10104;50.732;10.174;2024-01-16T14:26:06;7.07;;;3.60;;
19883;SDS011;10104;50.732;10.174;2024-01-16T14:28:46;16.50;;;8.07;;
19883;SDS011;10104;50.732;10.174;2024-01-16T14:31:26;7.90;;;3.90;;
19883;SDS011;10104;50.732;10.174;2024-01-16T14:34:06;7.87;;;3.80;;
19883;SDS011;10104;50.732;10.174;2024-01-16T14:36:47;10.07;;;3.90;;
19883;SDS011;10104;50.732;10.174;2024-01-16T14:39:28;9.67;;;3.70;;
19883;SDS011;10104;50.732;10.174;2024-01-16T14:42:11;10.27;;;4.10;;
19883;SDS011;10104;50.732;10.174;2024-01-16T14:44:52;10.07;;;4.77;;
19883;SDS011;10104;50.732;10.174;2024-01-16T14:47:32;6.47;;;4.07;;
19883;SDS011;10104;50.732;10.174;2024-01-16T14:50:13;8.30;;;4.27;;
19883;SDS011;10104;50.732;10.174;2024-01-16T14:52:56;8.53;;;3.83;;
19883;SDS011;10104;50.732;10.174;2024-01-16T14:55:36;7.80;;;3.57;;
19883;SDS011;10104;50.732;10.174;2024-01-16T14:58:17;9.67;;;4.43;;
19883;SDS011;10104;50.732;10.174;2024-01-16T15:01:02;10.37;;;4.30;;
19883;SDS011;10104;50.732;10.174;2024-01-16T15:03:43;9.00;;;3.93;;
19883;SDS011;10104;50.732;10.174;2024-01-16T15:06:24;8.43;;;4.03;;
19883;SDS011;10104;50.732;10.174;2024-01-16T15:09:07;8.13;;;3.53;;
19883;SDS011;10104;50.732;10.174;2024-01-16T15:11:50;6.70;;;3.17;;
19883;SDS011;10104;50.732;10.174;2024-01-16T15:14:31;9.03;;;4.03;;
19883;SDS011;10104;50.732;10.174;2024-01-16T15:17:15;5.10;;;3.77;;
19883;SDS011;10104;50.732;10.174;2024-01-16T15:19:55;10.67;;;3.90;;
19883;SDS011;10104;50.732;10.174;2024-01-16T15:22:41;9.73;;;4.07;;
19883;SDS011;10104;50.732;10.174;2024-01-16T15:25:26;8.00;;;4.23;;
19883;SDS011;10104;50.732;10.174;2024-01-16T15:28:06;6.40;;;3.70;;
19883;SDS011;10104;50.732;10.174;2024-01-16T15:30:46;8.83;;;3.53;;
19883;SDS011;10104;50.732;10.174;2024-01-16T15:33:27;8.77;;;3.70;;
19883;SDS011;10104;50.732;10.174;2024-01-16T15:36:07;5.67;;;3.43;;
19883;SDS011;10104;50.732;10.174;2024-01-16T15:38:47;5.00;;;2.80;;
19883;SDS011;10104;50.732;10.174;2024-01-16T15:41:29;9.40;;;4.00;;
19883;SDS011;10104;50.732;10.174;2024-01-16T15:44:09;5.70;;;3.67;;
19883;SDS011;10104;50.732;10.174;2024-01-16T15:46:57;9.90;;;3.97;;
19883;SDS011;10104;50.732;10.174;2024-01-16T15:49:41;7.17;;;3.30;;
19883;SDS011;10104;50.732;10.174;2024-01-16T15:52:21;7.80;;;3.60;;
19883;SDS011;10104;50.732;10.174;2024-01-16T15:55:02;6.63;;;3.70;;
19883;SDS011;10104;50.732;10.174;2024-01-16T15:57:42;10.33;;;4.43;;
19883;SDS011;10104;50.732;10.174;2024-01-16T16:00:22;7.83;;;3.50;;
19883;SDS011;10104;50.732;10.174;2024-01-16T16:03:03;5.53;;;3.70;;
19883;SDS011;10104;50.732;10.174;2024-01-16T16:05:43;7.10;;;3.70;;